Time;durP1;ratioP1;P1;durP2;ratioP2;P2;SDS_P1;SDS_P2;PMS_P1;PMS_P2;Temp;Humidity;BMP_temperature;BMP_pressure;BME280_temperature;BME280_humidity;BME280_pressure;Samples;Min_cycle;Max_cycle;Signal;HPM_P1;HPM_P2
2022/09/20 00:00:03;;;;;;;2.80;1.60;;;;;;;14.16;68.78;100327.72;5052589;28;20033;-69
2022/09/20 00:02:29;;;;;;;6.82;1.70;;;;;;;14.45;69.02;100358.56;5052031;28;20021;-68
2022/09/20 00:04:55;;;;;;;2.78;1.48;;;;;;;14.59;68.29;100358.81;5052810;28;20380;-69
2022/09/20 00:07:20;;;;;;;3.90;1.70;;;;;;;14.69;67.69;100364.25;5052458;28;20017;-70
2022/09/20 00:09:45;;;;;;;6.88;1.60;;;;;;;14.67;66.75;100339.09;5050692;28;20083;-69
2022/09/20 00:12:11;;;;;;;1.98;1.23;;;;;;;14.93;65.62;100365.53;5052199;28;20036;-69
2022/09/20 00:14:36;;;;;;;4.32;1.48;;;;;;;14.94;65.33;100375.09;5052250;28;20483;-69
2022/09/20 00:17:02;;;;;;;5.45;1.75;;;;;;;14.87;65.33;100368.91;5050898;28;20646;-68
2022/09/20 00:19:27;;;;;;;4.53;1.40;;;;;;;14.92;64.71;100373.31;5052083;28;20501;-69
2022/09/20 00:21:53;;;;;;;4.30;1.77;;;;;;;14.88;64.70;100370.66;5050369;28;20023;-69
2022/09/20 00:24:19;;;;;;;5.35;2.22;;;;;;;14.81;64.75;100358.38;5049697;28;20027;-69
2022/09/20 00:26:44;;;;;;;6.03;1.70;;;;;;;14.67;64.48;100371.13;5043017;28;20087;-71
2022/09/20 00:29:11;;;;;;;3.58;1.75;;;;;;;14.41;65.24;100378.41;5047067;28;20418;-69
2022/09/20 00:31:39;;;;;;;6.22;1.80;;;;;;;14.29;65.57;100368.63;5043183;28;20021;-68
2022/09/20 00:36:48;;;;;;;5.57;1.40;;;;;;;13.96;66.48;100367.09;5049720;28;20040;-69
2022/09/20 00:39:15;;;;;;;3.60;1.60;;;;;;;13.98;66.37;100362.84;5046283;28;20033;-68
2022/09/20 00:41:41;;;;;;;5.25;1.75;;;;;;;13.97;67.79;100355.88;5051328;28;20079;-70
2022/09/20 00:44:46;;;;;;;2.30;1.40;;;;;;;14.12;68.49;100360.50;5051283;28;20499;-66
2022/09/20 00:47:41;;;;;;;3.17;1.40;;;;;;;14.21;67.66;100372.81;5051613;28;20032;-68
2022/09/20 00:50:12;;;;;;;8.02;1.92;;;;;;;14.20;68.14;100366.72;5051291;28;20384;-64
2022/09/20 00:52:40;;;;;;;6.97;1.85;;;;;;;14.12;68.17;100357.03;5051597;28;20028;-68
2022/09/20 00:55:07;;;;;;;2.33;1.55;;;;;;;14.05;67.81;100345.66;5051799;28;20049;-68
2022/09/20 00:57:35;;;;;;;7.00;1.63;;;;;;;14.04;67.84;100344.78;5051213;28;20407;-66
2022/09/20 01:00:05;;;;;;;5.75;1.88;;;;;;;14.12;67.59;100336.25;5051572;28;20040;-67
2022/09/20 01:02:34;;;;;;;3.78;1.55;;;;;;;14.15;67.04;100332.00;5050448;28;20025;-67
2022/09/20 01:05:00;;;;;;;4.63;1.77;;;;;;;14.16;66.78;100333.75;5050731;28;20028;-67
2022/09/20 01:07:26;;;;;;;5.72;1.60;;;;;;;14.10;67.06;100337.97;5050190;28;20033;-66
2022/09/20 01:09:52;;;;;;;3.22;1.60;;;;;;;14.05;67.43;100325.75;5050594;28;20040;-71
2022/09/20 01:12:31;;;;;;;4.57;1.60;;;;;;;13.93;67.42;100329.81;5051324;28;20029;-70
2022/09/20 01:14:59;;;;;;;4.00;1.50;;;;;;;13.63;68.05;100323.13;5051083;28;20115;-71
2022/09/20 01:17:26;;;;;;;6.60;2.00;;;;;;;13.39;68.44;100330.38;5050666;28;20037;-66
2022/09/20 01:20:09;;;;;;;6.35;1.80;;;;;;;13.25;69.03;100319.66;5050678;28;20035;-68
2022/09/20 01:23:03;;;;;;;3.58;1.83;;;;;;;13.29;69.41;100318.00;5051045;28;20025;-68
2022/09/20 01:26:05;;;;;;;4.38;1.70;;;;;;;13.40;70.17;100316.56;5038595;28;20505;-72
2022/09/20 01:28:31;;;;;;;5.28;1.60;;;;;;;13.45;70.66;100308.91;5050871;28;20112;-69
2022/09/20 01:31:15;;;;;;;5.32;1.92;;;;;;;13.37;69.04;100315.59;5050917;28;20498;-69
2022/09/20 01:33:51;;;;;;;5.15;1.90;;;;;;;13.11;69.51;100303.78;5050673;28;20017;-67
2022/09/20 01:36:24;;;;;;;6.05;1.70;;;;;;;12.95;70.31;100312.03;5050561;28;20025;-70
2022/09/20 01:39:04;;;;;;;5.18;1.95;;;;;;;12.82;70.95;100315.16;5050269;28;20022;-70
2022/09/20 01:41:42;;;;;;;2.60;1.70;;;;;;;12.50;71.81;100272.06;5050614;28;20044;-65
2022/09/20 01:44:16;;;;;;;5.25;1.67;;;;;;;12.43;72.61;100273.59;4987281;28;20045;-67
2022/09/20 01:46:43;;;;;;;4.10;1.73;;;;;;;12.88;73.40;100320.50;5044528;28;20458;-68
2022/09/20 01:49:42;;;;;;;6.90;1.95;;;;;;;13.01;73.23;100308.69;5050674;28;20052;-67
2022/09/20 01:52:26;;;;;;;5.90;1.83;;;;;;;13.20;72.23;100307.44;5050405;28;20025;-67
2022/09/20 01:55:25;;;;;;;6.80;2.08;;;;;;;13.31;71.79;100300.78;5050129;28;20399;-64
2022/09/20 01:58:02;;;;;;;5.20;1.70;;;;;;;13.38;71.23;100300.13;5038693;28;20036;-69
2022/09/20 02:00:34;;;;;;;4.28;1.88;;;;;;;13.40;71.43;100305.34;5032454;28;20035;-67
2022/09/20 02:03:24;;;;;;;6.63;2.00;;;;;;;13.41;71.15;100299.31;5050433;28;20021;-68
2022/09/20 02:05:55;;;;;;;4.13;2.00;;;;;;;13.43;71.33;100300.22;5050249;28;20040;-68
2022/09/20 02:08:40;;;;;;;5.50;1.90;;;;;;;13.36;71.31;100293.13;5050227;28;20037;-66
2022/09/20 02:11:25;;;;;;;3.17;1.73;;;;;;;13.22;71.87;100272.94;5050103;28;20033;-66
2022/09/20 02:14:07;;;;;;;4.38;2.08;;;;;;;13.28;72.10;100290.34;5049587;28;20021;-68
2022/09/20 02:16:48;;;;;;;2.47;1.63;;;;;;;13.19;72.59;100285.81;5049941;28;20582;-67
2022/09/20 02:19:39;;;;;;;4.70;1.77;;;;;;;13.23;73.21;100284.16;5049988;28;20094;-68
2022/09/20 02:22:26;;;;;;;3.80;1.90;;;;;;;13.33;72.67;100295.63;5049971;28;20040;-67
2022/09/20 02:24:54;;;;;;;5.57;1.83;;;;;;;13.33;72.47;100299.09;5050076;28;20025;-72
2022/09/20 02:30:22;;;;;;;5.00;1.90;;;;;;;13.28;73.07;100305.88;5222285;22;20057;-69
2022/09/20 02:33:34;;;;;;;6.35;2.05;;;;;;;13.26;73.70;100299.81;5070924;28;20142;-72
2022/09/20 02:36:11;;;;;;;6.68;2.40;;;;;;;13.36;73.15;100299.19;5047736;28;20087;-70
2022/09/20 02:38:39;;;;;;;2.90;1.95;;;;;;;13.40;74.51;100302.75;5053532;28;20033;-71
2022/09/20 02:41:05;;;;;;;4.78;1.92;;;;;;;13.40;74.76;100301.03;5069330;28;20028;-69
2022/09/20 02:43:41;;;;;;;5.10;1.85;;;;;;;13.32;74.56;100293.88;5056267;28;20427;-69
2022/09/20 02:46:23;;;;;;;4.15;1.90;;;;;;;13.45;75.11;100302.88;5070334;28;20116;-70
2022/09/20 02:49:25;;;;;;;3.67;1.95;;;;;;;13.52;74.59;100315.09;5070252;28;20526;-70
2022/09/20 02:52:19;;;;;;;4.05;2.13;;;;;;;13.52;74.57;100323.78;5055940;28;20494;-69
2022/09/20 02:55:06;;;;;;;5.55;2.28;;;;;;;13.62;74.10;100313.59;4988558;28;20536;-68
2022/09/20 02:57:49;;;;;;;3.40;2.05;;;;;;;13.70;73.65;100318.09;4988148;28;20117;-70
2022/09/20 03:00:26;;;;;;;3.40;1.50;;;;;;;13.65;72.81;100311.94;4988349;28;20042;-70
2022/09/20 03:02:57;;;;;;;4.43;1.98;;;;;;;13.53;74.78;100316.84;4988384;28;20050;-70
2022/09/20 03:05:42;;;;;;;4.60;2.00;;;;;;;13.57;74.14;100316.06;4988219;28;20042;-70
2022/09/20 03:08:20;;;;;;;3.72;1.70;;;;;;;13.57;73.95;100324.75;4978660;28;20090;-69
2022/09/20 03:11:23;;;;;;;3.13;1.73;;;;;;;13.48;74.56;100324.53;4985735;28;20026;-69
2022/09/20 03:14:00;;;;;;;3.35;1.85;;;;;;;13.32;75.34;100312.91;4988254;28;20038;-69
2022/09/20 03:17:12;;;;;;;5.07;2.03;;;;;;;13.16;76.69;100315.97;4988054;28;20437;-69
2022/09/20 03:20:06;;;;;;;4.65;1.70;;;;;;;12.95;78.08;100322.41;4930390;29;20047;-69
2022/09/20 03:22:50;;;;;;;3.50;1.50;;;;;;;12.57;80.50;100324.88;4929965;29;20039;-69
2022/09/20 03:25:30;;;;;;;4.40;1.80;;;;;;;12.15;83.23;100336.69;4930456;29;20048;-70
2022/09/20 03:28:14;;;;;;;3.20;1.50;;;;;;;12.27;83.20;100337.03;4930043;29;20516;-69
2022/09/20 03:31:06;;;;;;;3.40;1.52;;;;;;;12.37;82.53;100338.16;4932908;28;20054;-69
2022/09/20 03:34:10;;;;;;;3.72;2.05;;;;;;;12.56;81.78;100336.06;5008095;28;20033;-69
2022/09/20 03:36:46;;;;;;;5.90;2.08;;;;;;;12.60;81.05;100343.09;4949378;29;20494;-69
2022/09/20 03:39:30;;;;;;;4.85;2.00;;;;;;;12.79;80.57;100354.81;4949261;28;20031;-69
2022/09/20 03:42:01;;;;;;;5.47;2.25;;;;;;;12.89;80.44;100358.50;4946082;29;20437;-69
2022/09/20 03:45:04;;;;;;;5.70;2.50;;;;;;;12.90;79.99;100362.88;4947027;29;20035;-69
2022/09/20 03:47:48;;;;;;;9.70;3.72;;;;;;;12.70;80.71;100367.53;4932537;29;20047;-69
2022/09/20 03:50:27;;;;;;;10.13;3.60;;;;;;;12.81;80.83;100362.63;4932922;29;20057;-68
2022/09/20 03:52:55;;;;;;;9.73;2.72;;;;;;;12.87;80.50;100373.13;4941593;29;20175;-68
2022/09/20 03:56:05;;;;;;;8.35;2.92;;;;;;;12.94;80.02;100373.31;4962892;28;20046;-67
2022/09/20 03:59:00;;;;;;;9.68;3.03;;;;;;;13.07;79.56;100373.63;5010901;28;20061;-68
2022/09/20 04:02:13;;;;;;;11.20;3.17;;;;;;;13.19;78.64;100379.13;5010806;28;20042;-68
2022/09/20 04:04:59;;;;;;;8.18;3.08;;;;;;;13.39;77.71;100377.06;4971825;28;20105;-67
2022/09/20 04:07:46;;;;;;;10.32;3.80;;;;;;;13.37;76.68;100380.41;4957777;28;20050;-68
2022/09/20 04:10:27;;;;;;;12.52;3.60;;;;;;;13.34;76.82;100389.00;4953926;28;20737;-67
2022/09/20 04:12:55;;;;;;;9.18;3.17;;;;;;;13.19;76.95;100386.03;4970145;28;20053;-67
2022/09/20 04:15:46;;;;;;;6.25;2.80;;;;;;;13.11;78.02;100394.50;5010412;28;20113;-70
2022/09/20 04:18:30;;;;;;;6.75;2.50;;;;;;;13.22;77.86;100396.47;4995748;28;20042;-69
2022/09/20 04:21:08;;;;;;;9.10;2.60;;;;;;;13.24;77.81;100393.06;4995528;28;20030;-70
2022/09/20 04:23:49;;;;;;;8.02;2.50;;;;;;;13.18;77.43;100394.66;5009775;28;20072;-69
2022/09/20 04:26:24;;;;;;;6.20;2.40;;;;;;;13.01;78.24;100395.13;5009726;28;20512;-68
2022/09/20 04:29:38;;;;;;;12.88;2.50;;;;;;;12.45;80.43;100395.34;5009183;28;20124;-68
2022/09/20 04:32:23;;;;;;;4.97;1.85;;;;;;;12.19;80.37;100332.50;4951399;29;20082;-70
2022/09/20 04:38:18;;;;;;;10.18;2.10;;;;;;;12.25;80.92;100410.28;4970453;28;20050;-68
2022/09/20 04:41:10;;;;;;;4.25;1.60;;;;;;;12.18;81.09;100409.25;4962821;28;20035;-70
2022/09/20 04:43:54;;;;;;;3.35;1.90;;;;;;;12.13;80.64;100422.03;4957733;28;20026;-68
2022/09/20 04:46:38;;;;;;;6.68;1.80;;;;;;;12.15;82.08;100435.03;4970299;28;20073;-68
2022/09/20 04:49:32;;;;;;;3.63;1.75;;;;;;;12.21;81.73;100440.41;4950282;28;20043;-72
2022/09/20 04:52:19;;;;;;;6.05;1.90;;;;;;;12.23;81.45;100437.84;4969205;28;20034;-66
2022/09/20 04:55:12;;;;;;;4.30;1.50;;;;;;;12.22;81.08;100439.53;4970022;28;20506;-67
2022/09/20 04:58:08;;;;;;;3.58;1.45;;;;;;;12.37;81.46;100444.28;4970110;28;20544;-67
2022/09/20 05:01:05;;;;;;;6.95;1.60;;;;;;;12.38;80.89;100443.47;4948936;28;20427;-68
2022/09/20 05:03:52;;;;;;;7.10;2.33;;;;;;;12.32;80.69;100439.84;4916745;29;20115;-73
2022/09/20 05:06:55;;;;;;;6.05;1.90;;;;;;;12.14;80.62;100438.44;4894413;29;20116;-67
2022/09/20 05:09:27;;;;;;;5.43;1.60;;;;;;;12.01;81.78;100442.34;4930832;29;20047;-67
2022/09/20 05:12:12;;;;;;;3.15;2.00;;;;;;;11.97;81.34;100431.06;4944243;29;20042;-68
2022/09/20 05:14:59;;;;;;;2.90;1.50;;;;;;;12.14;81.44;100443.63;5026344;28;20041;-67
2022/09/20 05:17:33;;;;;;;5.55;1.83;;;;;;;12.25;81.63;100439.66;5028090;28;20646;-71
2022/09/20 05:20:08;;;;;;;3.13;2.15;;;;;;;12.48;80.67;100454.09;5028782;28;20063;-72
2022/09/20 05:22:51;;;;;;;8.25;2.70;;;;;;;12.61;80.04;100451.00;5028518;28;20529;-70
2022/09/20 05:25:50;;;;;;;6.45;2.60;;;;;;;12.89;78.74;100456.97;5027972;28;20095;-69
2022/09/20 05:28:34;;;;;;;;;;;;;;;13.05;79.75;100456.53;4951074;29;20052;-67
2022/09/20 05:31:39;;;;;;;11.18;3.08;;;;;;;13.18;78.85;100464.66;4951092;29;19921;-70
2022/09/20 05:34:31;;;;;;;9.43;3.92;;;;;;;13.25;78.04;100466.56;4931932;29;20047;-70
2022/09/20 05:37:15;;;;;;;9.68;3.67;;;;;;;13.22;78.10;100451.81;4931773;29;20040;-68
2022/09/20 05:39:51;;;;;;;8.15;3.33;;;;;;;13.36;77.55;100459.06;4935716;29;20450;-71
2022/09/20 05:42:34;;;;;;;6.70;3.13;;;;;;;12.94;78.32;100425.16;4951094;29;20414;-69
2022/09/20 05:45:23;;;;;;;5.93;2.80;;;;;;;13.23;79.15;100458.75;4950966;29;20046;-73
2022/09/20 05:48:07;;;;;;;9.98;3.20;;;;;;;13.21;79.40;100451.78;4951121;29;20047;-73
2022/09/20 05:50:45;;;;;;;8.80;3.90;;;;;;;13.06;80.19;100455.72;4950588;29;20038;-72
2022/09/20 05:53:38;;;;;;;6.00;2.08;;;;;;;12.88;81.16;100461.25;4920928;29;20055;-68
2022/09/20 05:56:19;;;;;;;4.90;1.88;;;;;;;12.73;81.46;100461.72;4950814;28;20405;-68
2022/09/20 05:59:06;;;;;;;4.43;2.70;;;;;;;12.64;82.95;100469.25;4950771;29;20441;-68
2022/09/20 06:01:49;;;;;;;6.40;2.22;;;;;;;12.66;84.33;100471.88;4950888;29;20035;-68
2022/09/20 06:04:28;;;;;;;3.63;1.65;;;;;;;12.70;83.99;100468.56;4975966;28;20047;-67
2022/09/20 06:07:05;;;;;;;2.88;1.70;;;;;;;12.72;84.19;100470.34;5028699;28;20478;-68
2022/09/20 06:09:47;;;;;;;3.67;1.60;;;;;;;12.84;84.12;100449.06;5028896;28;20037;-71
2022/09/20 06:12:30;;;;;;;9.52;4.75;;;;;;;13.06;82.72;100460.00;5031090;28;20442;-68
2022/09/20 06:15:23;;;;;;;9.75;4.30;;;;;;;13.12;82.19;100462.75;5031040;28;20041;-69
2022/09/20 06:18:06;;;;;;;10.40;5.15;;;;;;;13.17;83.10;100458.59;5030863;28;20483;-72
2022/09/20 06:20:43;;;;;;;5.72;3.20;;;;;;;13.07;82.10;100416.00;5031272;28;20052;-68
2022/09/20 06:23:09;;;;;;;4.38;2.10;;;;;;;13.28;80.93;100427.75;5030904;28;20402;-72
2022/09/20 06:25:47;;;;;;;6.45;2.60;;;;;;;13.45;81.29;100445.50;5030786;28;20109;-70
2022/09/20 06:28:18;;;;;;;3.40;2.08;;;;;;;13.19;81.19;100414.56;5030683;28;20096;-69
2022/09/20 06:30:54;;;;;;;5.25;2.70;;;;;;;13.42;81.69;100456.63;5030739;28;20384;-68
2022/09/20 06:33:25;;;;;;;6.57;2.30;;;;;;;13.31;81.21;100414.88;5030993;28;20037;-68
2022/09/20 06:42:15;;;;;;;5.90;2.83;;;;;;;13.80;80.93;100456.69;4969984;28;20584;-67
2022/09/20 06:44:42;;;;;;;7.97;3.17;;;;;;;13.87;81.33;100468.13;4969468;28;20039;-67
2022/09/20 06:47:11;;;;;;;5.32;2.67;;;;;;;14.07;81.37;100460.78;4969515;28;20058;-72
2022/09/20 06:49:38;;;;;;;7.40;1.95;;;;;;;14.20;80.32;100464.53;4969501;28;20137;-68
2022/09/20 06:52:13;;;;;;;7.43;2.10;;;;;;;14.27;80.09;100447.34;4969483;28;20456;-69
2022/09/20 06:54:44;;;;;;;6.05;2.05;;;;;;;14.49;77.78;100456.47;4969470;28;20520;-72
2022/09/20 06:57:14;;;;;;;4.35;1.98;;;;;;;14.61;75.82;100459.31;4969299;28;20121;-70
2022/09/20 06:59:40;;;;;;;9.23;2.28;;;;;;;14.80;75.39;100459.72;4969466;28;20038;-71
2022/09/20 07:02:07;;;;;;;3.45;1.98;;;;;;;14.80;75.58;100428.53;4969470;28;20401;-69
2022/09/20 07:04:33;;;;;;;6.38;1.98;;;;;;;15.15;71.27;100473.41;4969312;28;20038;-67
2022/09/20 07:07:03;;;;;;;5.38;1.83;;;;;;;15.20;70.17;100476.06;4969422;28;20039;-68
2022/09/20 07:09:29;;;;;;;3.65;1.77;;;;;;;15.47;70.75;100480.88;4969285;28;20512;-67
2022/09/20 07:11:56;;;;;;;2.63;1.30;;;;;;;15.61;66.11;100483.69;4969361;28;20050;-69
2022/09/20 07:14:22;;;;;;;1.75;1.20;;;;;;;15.84;65.35;100478.91;4969341;28;20038;-67
2022/09/20 07:16:47;;;;;;;4.45;1.27;;;;;;;15.89;67.15;100471.19;4984519;28;20537;-70
2022/09/20 07:19:13;;;;;;;4.88;2.20;;;;;;;16.20;68.27;100483.75;5034384;28;20060;-74
2022/09/20 07:21:38;;;;;;;3.95;2.38;;;;;;;15.99;67.41;100480.88;5034326;28;20555;-71
2022/09/20 07:24:03;;;;;;;3.60;1.80;;;;;;;15.97;67.70;100476.50;5032678;28;20041;-73
2022/09/20 07:26:30;;;;;;;2.67;1.13;;;;;;;15.98;61.82;100473.03;5034157;28;20032;-71
2022/09/20 07:28:56;;;;;;;3.55;1.33;;;;;;;16.03;63.67;100462.69;5034035;28;20045;-67
2022/09/20 07:31:24;;;;;;;1.95;1.20;;;;;;;16.04;61.35;100452.31;5033716;28;20032;-68
2022/09/20 07:33:50;;;;;;;2.47;1.15;;;;;;;16.08;64.37;100476.66;5033834;28;20035;-68
2022/09/20 07:36:16;;;;;;;2.38;1.30;;;;;;;16.27;61.66;100476.03;5033800;28;20033;-68
2022/09/20 07:38:47;;;;;;;3.00;1.48;;;;;;;16.38;60.95;100472.72;5033723;28;20030;-73
2022/09/20 07:41:12;;;;;;;4.95;1.23;;;;;;;16.28;61.09;100461.31;5033861;28;20025;-70
2022/09/20 07:43:38;;;;;;;3.47;1.65;;;;;;;16.21;59.25;100472.50;5033791;28;20049;-68
2022/09/20 07:46:04;;;;;;;3.72;1.20;;;;;;;16.28;59.41;100451.75;5033726;28;20104;-72
2022/09/20 07:48:35;;;;;;;1.85;1.20;;;;;;;16.23;59.99;100468.19;5033881;28;20026;-68
2022/09/20 07:51:03;;;;;;;1.58;1.15;;;;;;;16.25;58.21;100474.28;5033402;28;20390;-68
2022/09/20 07:53:29;;;;;;;1.20;1.10;;;;;;;16.38;57.30;100462.31;5033447;28;20087;-69
2022/09/20 07:56:04;;;;;;;1.80;1.20;;;;;;;16.77;56.41;100481.88;5033561;28;20029;-71
2022/09/20 07:58:32;;;;;;;2.78;1.23;;;;;;;16.54;59.04;100440.78;5033491;28;20112;-68
2022/09/20 08:01:00;;;;;;;3.17;1.35;;;;;;;16.22;56.73;100454.28;5033646;28;20083;-68
2022/09/20 08:03:28;;;;;;;2.45;1.58;;;;;;;16.20;56.71;100486.38;5033355;28;20029;-71
2022/09/20 08:06:10;;;;;;;1.85;1.40;;;;;;;15.94;58.11;100447.81;5033293;28;20030;-71
2022/09/20 08:08:38;;;;;;;1.77;1.02;;;;;;;16.12;57.75;100481.91;5033304;28;20475;-69
2022/09/20 08:11:15;;;;;;;1.30;1.20;;;;;;;16.36;58.33;100490.06;5032994;28;20403;-70
2022/09/20 08:13:47;;;;;;;1.67;1.50;;;;;;;16.22;56.23;100477.72;5033072;28;20105;-67
2022/09/20 08:16:13;;;;;;;3.53;1.58;;;;;;;16.37;59.16;100476.19;5033056;28;20033;-69
2022/09/20 08:18:45;;;;;;;1.55;1.20;;;;;;;16.26;56.13;100476.03;5033227;28;20029;-68
2022/09/20 08:21:13;;;;;;;1.77;1.25;;;;;;;16.21;56.08;100475.97;5033164;28;20033;-68
2022/09/20 08:23:41;;;;;;;4.05;1.20;;;;;;;16.55;55.96;100472.94;5032926;28;20488;-68
2022/09/20 08:26:13;;;;;;;1.73;1.30;;;;;;;16.48;55.70;100479.81;5032028;28;20021;-68
2022/09/20 08:28:40;;;;;;;2.58;1.23;;;;;;;16.82;56.42;100485.41;5032447;28;20092;-66
2022/09/20 08:31:12;;;;;;;2.75;1.08;;;;;;;16.59;54.36;100478.22;5032741;28;20076;-70
2022/09/20 08:33:38;;;;;;;1.70;1.13;;;;;;;16.53;56.67;100427.75;5032898;28;20041;-68
2022/09/20 08:36:05;;;;;;;2.05;1.00;;;;;;;16.79;52.58;100473.22;5032760;28;20042;-70
2022/09/20 08:38:31;;;;;;;6.35;3.40;;;;;;;16.90;53.50;100462.94;5048051;28;20108;-68
2022/09/20 08:41:11;;;;;;;1.33;1.17;;;;;;;16.75;52.35;100449.72;5032668;28;20035;-73
2022/09/20 08:43:38;;;;;;;;;;;;;;;17.22;51.02;100462.41;5033033;28;20571;-70
2022/09/20 08:46:09;;;;;;;1.75;1.38;;;;;;;17.49;50.06;100466.13;5032718;28;19917;-74
2022/09/20 08:48:34;;;;;;;1.20;1.00;;;;;;;17.60;51.06;100464.47;5032399;28;20034;-72
2022/09/20 08:51:01;;;;;;;1.63;1.05;;;;;;;17.43;52.03;100430.41;5032404;28;20025;-73
2022/09/20 08:53:29;;;;;;;2.00;1.08;;;;;;;17.27;52.36;100421.59;5032314;28;20514;-69
2022/09/20 08:55:58;;;;;;;1.52;1.23;;;;;;;17.77;54.43;100451.56;5032196;28;20033;-75
2022/09/20 08:58:26;;;;;;;1.27;1.15;;;;;;;17.60;52.71;100461.88;5032400;28;20083;-68
2022/09/20 09:00:55;;;;;;;1.88;1.05;;;;;;;17.94;45.80;100446.50;5032430;28;20044;-67
2022/09/20 09:03:20;;;;;;;1.55;1.17;;;;;;;17.98;50.28;100450.00;5032247;28;20033;-71
2022/09/20 09:05:49;;;;;;;1.15;1.02;;;;;;;17.93;48.58;100446.41;5032118;28;20541;-75
2022/09/20 09:08:18;;;;;;;1.10;0.90;;;;;;;18.07;47.78;100442.19;5031939;28;20029;-68
2022/09/20 09:10:51;;;;;;;1.00;0.88;;;;;;;18.12;45.91;100444.84;5031915;28;20052;-67
2022/09/20 09:13:27;;;;;;;1.35;1.10;;;;;;;17.83;49.22;100413.28;5032146;28;20026;-69
2022/09/20 09:15:59;;;;;;;1.92;1.20;;;;;;;18.16;48.96;100436.16;5032021;28;20470;-69
2022/09/20 09:18:48;;;;;;;3.15;1.05;;;;;;;18.46;49.04;100441.53;5031872;28;20109;-68
2022/09/20 09:21:24;;;;;;;1.20;1.10;;;;;;;18.58;44.51;100441.56;5031690;28;20491;-73
2022/09/20 09:24:01;;;;;;;1.30;0.90;;;;;;;18.76;46.82;100440.75;5032224;28;20132;-72
2022/09/20 09:26:33;;;;;;;1.15;1.00;;;;;;;18.58;44.17;100424.13;5039098;28;20044;-70
2022/09/20 09:29:16;;;;;;;1.35;1.00;;;;;;;18.73;43.36;100432.91;5051714;28;20053;-67
2022/09/20 09:31:44;;;;;;;1.88;1.10;;;;;;;18.96;47.71;100426.88;5051711;28;20034;-68
2022/09/20 09:34:28;;;;;;;3.38;1.00;;;;;;;18.85;47.12;100427.66;5051706;28;20116;-75
2022/09/20 09:36:55;;;;;;;1.35;0.90;;;;;;;18.84;44.73;100433.81;5051569;28;20083;-69
2022/09/20 09:39:34;;;;;;;2.88;1.20;;;;;;;18.39;46.48;100431.03;5050962;28;20037;-71
2022/09/20 09:42:19;;;;;;;1.10;1.00;;;;;;;18.57;45.22;100425.00;5051337;28;20513;-70
2022/09/20 09:44:49;;;;;;;1.67;1.13;;;;;;;18.21;44.12;100386.53;5049195;28;20039;-68
2022/09/20 09:47:28;;;;;;;0.90;0.90;;;;;;;18.30;44.07;100412.69;5051154;28;20112;-68
2022/09/20 09:49:58;;;;;;;0.80;0.80;;;;;;;18.11;43.28;100420.44;5051404;28;20086;-70
2022/09/20 09:52:26;;;;;;;0.82;0.82;;;;;;;18.64;42.42;100417.16;5051394;28;20025;-68
2022/09/20 09:54:58;;;;;;;3.13;1.10;;;;;;;18.87;42.65;100415.47;5051141;28;20032;-69
2022/09/20 09:57:27;;;;;;;2.80;1.00;;;;;;;19.15;42.80;100415.56;5051219;28;20044;-69
2022/09/20 10:00:30;;;;;;;3.80;1.20;;;;;;;19.55;40.98;100409.44;5051119;28;20132;-70
2022/09/20 10:03:14;;;;;;;1.00;0.88;;;;;;;19.68;40.07;100411.16;5051204;28;20554;-75
2022/09/20 10:05:57;;;;;;;1.95;1.00;;;;;;;19.64;40.07;100406.81;5051049;28;20032;-74
2022/09/20 10:09:09;;;;;;;3.25;1.30;;;;;;;19.64;40.74;100409.44;5050927;28;20037;-70
2022/09/20 10:11:57;;;;;;;3.28;1.25;;;;;;;19.78;41.91;100409.41;5050693;28;20033;-75
2022/09/20 10:14:46;;;;;;;2.80;1.00;;;;;;;19.64;43.69;100405.94;5050816;28;20037;-69
2022/09/20 10:17:30;;;;;;;1.63;1.00;;;;;;;19.76;41.72;100411.16;5050843;28;20106;-70
2022/09/20 10:20:08;;;;;;;2.15;1.50;;;;;;;19.04;41.76;100414.66;5050931;28;20025;-73
2022/09/20 10:22:50;;;;;;;2.53;1.40;;;;;;;18.72;42.72;100412.84;5065483;28;20048;-70
2022/09/20 10:25:36;;;;;;;1.92;0.93;;;;;;;18.70;42.42;100417.19;5050513;28;20509;-72
2022/09/20 10:28:04;;;;;;;1.10;0.85;;;;;;;18.87;43.35;100414.63;5050760;28;20037;-68
2022/09/20 10:31:05;;;;;;;2.45;0.90;;;;;;;19.10;40.58;100404.19;5050667;28;20155;-69
2022/09/20 10:33:33;;;;;;;2.25;1.38;;;;;;;19.02;41.12;100409.44;4953341;28;20062;-73
2022/09/20 10:36:04;;;;;;;2.03;1.30;;;;;;;18.92;42.01;100405.94;4969572;28;20034;-71
2022/09/20 10:38:59;;;;;;;1.10;1.00;;;;;;;18.61;42.88;100370.13;4969741;28;20074;-68
2022/09/20 10:44:17;;;;;;;290.23;188.45;;;;;;;18.54;42.51;100391.00;4969724;28;20045;-67
2022/09/20 10:46:54;;;;;;;4.70;2.88;;;;;;;18.65;43.90;100362.25;4969735;28;20031;-68
2022/09/20 10:49:47;;;;;;;7.35;4.60;;;;;;;19.56;40.43;100391.13;4969430;28;20047;-68
2022/09/20 10:52:37;;;;;;;1.77;1.17;;;;;;;20.06;39.21;100385.78;4973525;28;20038;-75
2022/09/20 10:55:11;;;;;;;;;;;;;;;20.31;38.73;100380.44;4974043;28;20125;-70
2022/09/20 10:57:44;;;;;;;2.13;0.80;;;;;;;20.13;38.53;100374.41;4973296;28;19917;-69
2022/09/20 11:00:44;;;;;;;1.00;0.90;;;;;;;20.47;38.43;100363.78;4973318;28;20473;-69
2022/09/20 11:03:28;;;;;;;2.72;1.08;;;;;;;20.77;36.97;100367.13;4973220;28;20126;-69
2022/09/20 11:05:59;;;;;;;1.08;0.98;;;;;;;20.74;39.07;100353.16;4973290;28;20476;-72
2022/09/20 11:08:33;;;;;;;1.00;0.90;;;;;;;20.79;37.00;100314.63;4973106;28;20037;-69
2022/09/20 11:11:11;;;;;;;1.95;0.93;;;;;;;21.07;35.99;100333.66;5025257;28;20075;-75
2022/09/20 11:14:15;;;;;;;0.98;0.80;;;;;;;21.35;36.13;100330.75;5054518;28;20035;-69
2022/09/20 11:16:50;;;;;;;1.10;1.00;;;;;;;21.31;36.48;100332.53;4992445;28;20552;-69
2022/09/20 11:19:31;;;;;;;1.08;0.98;;;;;;;21.34;36.59;100332.50;4992425;28;20546;-71
2022/09/20 11:22:13;;;;;;;1.92;1.20;;;;;;;21.20;39.72;100296.75;4992217;28;20436;-69
2022/09/20 11:24:50;;;;;;;2.03;1.58;;;;;;;21.80;36.33;100327.69;4992402;28;20022;-69
2022/09/20 11:27:24;;;;;;;1.30;1.00;;;;;;;21.65;33.92;100332.22;4992322;28;20571;-71
2022/09/20 11:30:13;;;;;;;1.63;1.10;;;;;;;21.17;34.66;100326.53;4991985;28;20066;-69
2022/09/20 11:33:06;;;;;;;0.70;0.70;;;;;;;21.04;34.50;100315.28;4992071;28;20401;-68
2022/09/20 11:35:41;;;;;;;3.20;1.08;;;;;;;21.25;36.99;100316.00;4992264;28;20055;-68
2022/09/20 11:38:24;;;;;;;1.33;0.80;;;;;;;21.12;35.07;100309.97;4992005;28;20073;-68
2022/09/20 11:40:56;;;;;;;2.92;1.00;;;;;;;21.52;34.76;100306.97;4992254;28;20484;-70
2022/09/20 11:43:25;;;;;;;1.10;1.00;;;;;;;21.78;34.35;100306.69;4992010;28;20026;-69
2022/09/20 11:45:56;;;;;;;0.80;0.80;;;;;;;21.63;36.52;100307.75;4991938;28;20109;-72
2022/09/20 11:48:28;;;;;;;0.73;0.73;;;;;;;21.95;33.37;100301.19;5046291;28;20037;-72
2022/09/20 11:51:26;;;;;;;1.10;0.90;;;;;;;21.72;34.11;100298.00;5053290;28;20036;-69
2022/09/20 11:54:11;;;;;;;0.70;0.70;;;;;;;21.86;32.49;100292.56;5053649;28;20029;-71
2022/09/20 11:56:37;;;;;;;2.33;0.93;;;;;;;21.47;32.71;100296.50;5053377;28;20025;-69
2022/09/20 11:59:07;;;;;;;1.83;0.95;;;;;;;21.65;33.60;100297.22;5053165;28;20056;-69
2022/09/20 12:01:39;;;;;;;2.05;0.90;;;;;;;21.70;32.76;100289.28;5017746;28;20037;-69
2022/09/20 12:04:22;;;;;;;7.68;1.25;;;;;;;21.63;32.84;100293.72;5053356;28;20123;-69
2022/09/20 12:06:58;;;;;;;1.88;0.90;;;;;;;21.98;33.12;100295.03;5053251;28;20442;-68
2022/09/20 12:09:39;;;;;;;1.48;0.70;;;;;;;22.27;31.90;100275.38;5053042;28;20043;-71
2022/09/20 12:12:26;;;;;;;1.00;0.90;;;;;;;22.58;34.56;100278.44;5053232;28;20021;-69
2022/09/20 12:14:57;;;;;;;1.83;0.90;;;;;;;22.71;33.58;100280.88;5053042;28;20406;-76
2022/09/20 12:17:44;;;;;;;0.70;0.70;;;;;;;22.28;34.62;100279.72;5052964;28;20082;-70
2022/09/20 12:20:31;;;;;;;3.83;0.98;;;;;;;22.67;32.83;100274.78;5052787;28;20121;-69
2022/09/20 12:23:41;;;;;;;1.85;0.77;;;;;;;22.73;33.15;100276.44;5053004;28;20177;-69
2022/09/20 12:26:12;;;;;;;2.17;0.85;;;;;;;22.41;35.53;100276.06;4991044;28;20042;-71
2022/09/20 12:28:51;;;;;;;1.45;0.90;;;;;;;22.66;34.85;100262.53;4990923;28;20058;-69
2022/09/20 12:31:28;;;;;;;0.88;0.70;;;;;;;22.74;33.15;100265.91;4991053;28;20034;-71
2022/09/20 12:34:01;;;;;;;0.85;0.85;;;;;;;22.91;31.92;100270.88;4991122;28;20041;-75